sensor_id;sensor_type;location;lat;lon;timestamp;P1;durP1;ratioP1;P2;durP2;ratioP2
39898;SDS011;25571;47.876;10.642;2022-08-30T00:01:29;5.95;;;5.35;;
39898;SDS011;25571;47.876;10.642;2022-08-30T00:03:57;7.75;;;6.88;;
39898;SDS011;25571;47.876;10.642;2022-08-30T00:06:23;7.03;;;6.32;;
39898;SDS011;25571;47.876;10.642;2022-08-30T00:08:51;6.45;;;5.85;;
39898;SDS011;25571;47.876;10.642;2022-08-30T00:11:18;6.63;;;5.93;;
39898;SDS011;25571;47.876;10.642;2022-08-30T00:13:46;5.57;;;5.07;;
39898;SDS011;25571;47.876;10.642;2022-08-30T00:16:14;7.25;;;6.40;;
39898;SDS011;25571;47.876;10.642;2022-08-30T00:18:40;7.93;;;6.93;;
39898;SDS011;25571;47.876;10.642;2022-08-30T00:21:07;7.57;;;6.82;;
39898;SDS011;25571;47.876;10.642;2022-08-30T00:23:33;6.97;;;6.32;;
39898;SDS011;25571;47.876;10.642;2022-08-30T00:25:59;7.13;;;6.28;;
39898;SDS011;25571;47.876;10.642;2022-08-30T00:28:26;7.05;;;6.35;;
39898;SDS011;25571;47.876;10.642;2022-08-30T00:30:52;6.93;;;6.32;;
39898;SDS011;25571;47.876;10.642;2022-08-30T00:33:18;7.40;;;6.70;;
39898;SDS011;25571;47.876;10.642;2022-08-30T00:35:45;6.50;;;5.90;;
39898;SDS011;25571;47.876;10.642;2022-08-30T00:38:11;6.85;;;6.25;;
39898;SDS011;25571;47.876;10.642;2022-08-30T00:40:39;8.05;;;7.25;;
39898;SDS011;25571;47.876;10.642;2022-08-30T00:43:10;7.90;;;6.93;;
39898;SDS011;25571;47.876;10.642;2022-08-30T00:45:43;7.70;;;6.90;;
39898;SDS011;25571;47.876;10.642;2022-08-30T00:48:09;7.10;;;6.40;;
39898;SDS011;25571;47.876;10.642;2022-08-30T00:50:37;7.47;;;6.40;;
39898;SDS011;25571;47.876;10.642;2022-08-30T00:53:07;7.75;;;7.00;;
39898;SDS011;25571;47.876;10.642;2022-08-30T00:55:37;7.97;;;7.18;;
39898;SDS011;25571;47.876;10.642;2022-08-30T00:58:03;8.13;;;7.22;;
39898;SDS011;25571;47.876;10.642;2022-08-30T01:00:31;8.07;;;7.28;;
39898;SDS011;25571;47.876;10.642;2022-08-30T01:02:58;8.93;;;6.72;;
39898;SDS011;25571;47.876;10.642;2022-08-30T01:05:23;7.45;;;6.75;;
39898;SDS011;25571;47.876;10.642;2022-08-30T01:07:49;7.25;;;6.55;;
39898;SDS011;25571;47.876;10.642;2022-08-30T01:10:15;6.78;;;6.07;;
39898;SDS011;25571;47.876;10.642;2022-08-30T01:12:42;8.15;;;7.35;;
39898;SDS011;25571;47.876;10.642;2022-08-30T01:15:09;9.02;;;7.75;;
39898;SDS011;25571;47.876;10.642;2022-08-30T01:17:38;8.77;;;7.22;;
39898;SDS011;25571;47.876;10.642;2022-08-30T01:20:09;7.93;;;7.15;;
39898;SDS011;25571;47.876;10.642;2022-08-30T01:25:21;7.90;;;7.18;;
39898;SDS011;25571;47.876;10.642;2022-08-30T01:27:52;8.40;;;7.30;;
39898;SDS011;25571;47.876;10.642;2022-08-30T01:30:22;7.68;;;6.95;;
39898;SDS011;25571;47.876;10.642;2022-08-30T01:32:49;6.75;;;5.97;;
39898;SDS011;25571;47.876;10.642;2022-08-30T01:35:20;6.47;;;5.88;;
39898;SDS011;25571;47.876;10.642;2022-08-30T01:37:46;6.70;;;6.10;;
39898;SDS011;25571;47.876;10.642;2022-08-30T01:40:13;7.05;;;6.35;;
39898;SDS011;25571;47.876;10.642;2022-08-30T01:42:39;9.05;;;7.65;;
39898;SDS011;25571;47.876;10.642;2022-08-30T01:45:05;7.13;;;6.45;;
39898;SDS011;25571;47.876;10.642;2022-08-30T01:47:32;8.27;;;6.80;;
39898;SDS011;25571;47.876;10.642;2022-08-30T01:49:58;7.75;;;5.95;;
39898;SDS011;25571;47.876;10.642;2022-08-30T01:52:24;7.32;;;6.63;;
39898;SDS011;25571;47.876;10.642;2022-08-30T01:54:50;7.72;;;6.93;;
39898;SDS011;25571;47.876;10.642;2022-08-30T01:57:17;10.27;;;8.23;;
39898;SDS011;25571;47.876;10.642;2022-08-30T01:59:45;8.13;;;7.07;;
39898;SDS011;25571;47.876;10.642;2022-08-30T02:02:14;7.53;;;6.70;;
39898;SDS011;25571;47.876;10.642;2022-08-30T02:04:42;7.05;;;6.32;;
39898;SDS011;25571;47.876;10.642;2022-08-30T02:07:08;7.45;;;6.72;;
39898;SDS011;25571;47.876;10.642;2022-08-30T02:09:34;6.03;;;5.45;;
39898;SDS011;25571;47.876;10.642;2022-08-30T02:12:01;5.78;;;5.22;;
39898;SDS011;25571;47.876;10.642;2022-08-30T02:14:29;6.03;;;5.25;;
39898;SDS011;25571;47.876;10.642;2022-08-30T02:16:54;4.88;;;4.47;;
39898;SDS011;25571;47.876;10.642;2022-08-30T02:19:20;6.40;;;5.80;;
39898;SDS011;25571;47.876;10.642;2022-08-30T02:21:45;6.03;;;5.45;;
39898;SDS011;25571;47.876;10.642;2022-08-30T02:24:11;6.90;;;6.20;;
39898;SDS011;25571;47.876;10.642;2022-08-30T02:26:36;7.10;;;6.40;;
39898;SDS011;25571;47.876;10.642;2022-08-30T02:29:02;6.70;;;6.07;;
39898;SDS011;25571;47.876;10.642;2022-08-30T02:31:30;8.13;;;6.68;;
39898;SDS011;25571;47.876;10.642;2022-08-30T02:33:56;7.90;;;7.15;;
39898;SDS011;25571;47.876;10.642;2022-08-30T02:36:21;9.10;;;7.05;;
39898;SDS011;25571;47.876;10.642;2022-08-30T02:38:48;8.55;;;7.72;;
39898;SDS011;25571;47.876;10.642;2022-08-30T02:41:14;8.48;;;7.68;;
39898;SDS011;25571;47.876;10.642;2022-08-30T02:43:39;9.60;;;7.38;;
39898;SDS011;25571;47.876;10.642;2022-08-30T02:46:05;7.65;;;6.85;;
39898;SDS011;25571;47.876;10.642;2022-08-30T02:48:31;7.65;;;6.95;;
39898;SDS011;25571;47.876;10.642;2022-08-30T02:51:02;7.78;;;6.47;;
39898;SDS011;25571;47.876;10.642;2022-08-30T02:53:30;7.47;;;6.47;;
39898;SDS011;25571;47.876;10.642;2022-08-30T02:55:56;6.82;;;6.13;;
39898;SDS011;25571;47.876;10.642;2022-08-30T02:58:22;7.15;;;6.50;;
39898;SDS011;25571;47.876;10.642;2022-08-30T03:00:48;8.80;;;7.00;;
39898;SDS011;25571;47.876;10.642;2022-08-30T03:03:14;6.55;;;5.65;;
39898;SDS011;25571;47.876;10.642;2022-08-30T03:05:40;7.60;;;6.80;;
39898;SDS011;25571;47.876;10.642;2022-08-30T03:08:06;7.05;;;6.35;;
39898;SDS011;25571;47.876;10.642;2022-08-30T03:10:32;6.63;;;5.93;;
39898;SDS011;25571;47.876;10.642;2022-08-30T03:12:57;6.63;;;5.95;;
39898;SDS011;25571;47.876;10.642;2022-08-30T03:15:23;6.50;;;5.85;;
39898;SDS011;25571;47.876;10.642;2022-08-30T03:17:50;7.00;;;6.30;;
39898;SDS011;25571;47.876;10.642;2022-08-30T03:20:17;7.32;;;5.93;;
39898;SDS011;25571;47.876;10.642;2022-08-30T03:22:43;5.97;;;5.47;;
39898;SDS011;25571;47.876;10.642;2022-08-30T03:25:09;6.53;;;5.75;;
39898;SDS011;25571;47.876;10.642;2022-08-30T03:27:34;6.70;;;5.97;;
39898;SDS011;25571;47.876;10.642;2022-08-30T03:30:00;6.55;;;5.68;;
39898;SDS011;25571;47.876;10.642;2022-08-30T03:32:26;5.57;;;5.03;;
39898;SDS011;25571;47.876;10.642;2022-08-30T03:34:52;6.47;;;5.88;;
39898;SDS011;25571;47.876;10.642;2022-08-30T03:37:17;6.25;;;5.65;;
39898;SDS011;25571;47.876;10.642;2022-08-30T03:39:44;7.00;;;6.30;;
39898;SDS011;25571;47.876;10.642;2022-08-30T03:42:10;6.18;;;5.57;;
39898;SDS011;25571;47.876;10.642;2022-08-30T03:44:36;6.03;;;5.28;;
39898;SDS011;25571;47.876;10.642;2022-08-30T03:47:01;5.57;;;5.07;;
39898;SDS011;25571;47.876;10.642;2022-08-30T03:49:28;6.30;;;5.70;;
39898;SDS011;25571;47.876;10.642;2022-08-30T03:51:53;7.20;;;6.50;;
39898;SDS011;25571;47.876;10.642;2022-08-30T03:54:19;6.45;;;5.72;;
39898;SDS011;25571;47.876;10.642;2022-08-30T03:56:45;7.03;;;6.32;;
39898;SDS011;25571;47.876;10.642;2022-08-30T03:59:10;5.53;;;5.03;;
39898;SDS011;25571;47.876;10.642;2022-08-30T04:01:36;5.65;;;5.15;;
39898;SDS011;25571;47.876;10.642;2022-08-30T04:04:02;6.72;;;6.03;;
39898;SDS011;25571;47.876;10.642;2022-08-30T04:06:27;6.13;;;5.53;;
39898;SDS011;25571;47.876;10.642;2022-08-30T04:08:53;5.78;;;5.18;;
39898;SDS011;25571;47.876;10.642;2022-08-30T04:11:19;6.30;;;5.70;;
39898;SDS011;25571;47.876;10.642;2022-08-30T04:13:45;6.53;;;5.82;;
39898;SDS011;25571;47.876;10.642;2022-08-30T04:16:15;5.97;;;5.38;;
39898;SDS011;25571;47.876;10.642;2022-08-30T04:18:41;6.13;;;5.50;;
39898;SDS011;25571;47.876;10.642;2022-08-30T04:21:06;6.38;;;5.75;;
39898;SDS011;25571;47.876;10.642;2022-08-30T04:23:32;5.85;;;5.00;;
39898;SDS011;25571;47.876;10.642;2022-08-30T04:25:58;5.72;;;5.20;;
39898;SDS011;25571;47.876;10.642;2022-08-30T04:28:23;6.63;;;5.93;;
39898;SDS011;25571;47.876;10.642;2022-08-30T04:30:49;6.25;;;5.53;;
39898;SDS011;25571;47.876;10.642;2022-08-30T04:33:14;7.22;;;6.32;;
39898;SDS011;25571;47.876;10.642;2022-08-30T04:35:44;6.10;;;5.50;;
39898;SDS011;25571;47.876;10.642;2022-08-30T04:38:11;5.85;;;5.25;;
39898;SDS011;25571;47.876;10.642;2022-08-30T04:40:39;5.45;;;4.68;;
39898;SDS011;25571;47.876;10.642;2022-08-30T04:43:06;5.10;;;4.60;;
39898;SDS011;25571;47.876;10.642;2022-08-30T04:45:32;6.78;;;4.55;;
39898;SDS011;25571;47.876;10.642;2022-08-30T04:47:57;5.40;;;4.60;;
39898;SDS011;25571;47.876;10.642;2022-08-30T04:50:23;4.97;;;4.47;;
39898;SDS011;25571;47.876;10.642;2022-08-30T04:52:49;4.68;;;4.22;;
39898;SDS011;25571;47.876;10.642;2022-08-30T04:55:14;7.38;;;4.70;;
39898;SDS011;25571;47.876;10.642;2022-08-30T04:57:40;4.05;;;3.75;;
39898;SDS011;25571;47.876;10.642;2022-08-30T05:00:08;3.75;;;3.45;;
39898;SDS011;25571;47.876;10.642;2022-08-30T05:02:36;4.10;;;3.78;;
39898;SDS011;25571;47.876;10.642;2022-08-30T05:05:02;4.45;;;4.05;;
39898;SDS011;25571;47.876;10.642;2022-08-30T05:07:47;4.10;;;3.70;;
39898;SDS011;25571;47.876;10.642;2022-08-30T05:10:13;6.05;;;4.40;;
39898;SDS011;25571;47.876;10.642;2022-08-30T05:12:39;5.32;;;4.82;;
39898;SDS011;25571;47.876;10.642;2022-08-30T05:15:05;5.07;;;4.50;;
39898;SDS011;25571;47.876;10.642;2022-08-30T05:17:31;3.92;;;3.53;;
39898;SDS011;25571;47.876;10.642;2022-08-30T05:19:56;4.75;;;4.25;;
39898;SDS011;25571;47.876;10.642;2022-08-30T05:22:24;4.40;;;4.00;;
39898;SDS011;25571;47.876;10.642;2022-08-30T05:24:49;4.40;;;4.00;;
39898;SDS011;25571;47.876;10.642;2022-08-30T05:27:15;4.93;;;4.43;;
39898;SDS011;25571;47.876;10.642;2022-08-30T05:29:41;5.15;;;4.65;;
39898;SDS011;25571;47.876;10.642;2022-08-30T05:32:06;4.93;;;4.10;;
39898;SDS011;25571;47.876;10.642;2022-08-30T05:34:33;4.85;;;4.20;;
39898;SDS011;25571;47.876;10.642;2022-08-30T05:36:58;4.20;;;3.80;;
39898;SDS011;25571;47.876;10.642;2022-08-30T05:39:26;4.22;;;3.83;;
39898;SDS011;25571;47.876;10.642;2022-08-30T05:41:54;6.05;;;4.30;;
39898;SDS011;25571;47.876;10.642;2022-08-30T05:46:47;4.47;;;3.80;;
39898;SDS011;25571;47.876;10.642;2022-08-30T05:49:13;4.53;;;4.13;;
39898;SDS011;25571;47.876;10.642;2022-08-30T05:51:39;4.38;;;3.97;;
39898;SDS011;25571;47.876;10.642;2022-08-30T05:54:05;5.25;;;4.78;;
39898;SDS011;25571;47.876;10.642;2022-08-30T05:56:32;6.70;;;5.90;;
39898;SDS011;25571;47.876;10.642;2022-08-30T05:58:59;5.32;;;4.82;;
39898;SDS011;25571;47.876;10.642;2022-08-30T06:01:32;4.40;;;4.00;;
39898;SDS011;25571;47.876;10.642;2022-08-30T06:04:06;5.50;;;5.00;;
39898;SDS011;25571;47.876;10.642;2022-08-30T06:06:34;5.20;;;4.67;;
39898;SDS011;25571;47.876;10.642;2022-08-30T06:09:01;7.28;;;4.88;;
39898;SDS011;25571;47.876;10.642;2022-08-30T06:11:28;5.80;;;5.30;;
39898;SDS011;25571;47.876;10.642;2022-08-30T06:13:54;5.63;;;5.13;;
39898;SDS011;25571;47.876;10.642;2022-08-30T06:16:20;5.70;;;5.10;;
39898;SDS011;25571;47.876;10.642;2022-08-30T06:18:48;5.90;;;5.30;;
39898;SDS011;25571;47.876;10.642;2022-08-30T06:21:18;5.97;;;4.88;;
39898;SDS011;25571;47.876;10.642;2022-08-30T06:23:45;5.10;;;4.60;;
39898;SDS011;25571;47.876;10.642;2022-08-30T06:26:11;5.43;;;4.93;;
39898;SDS011;25571;47.876;10.642;2022-08-30T06:28:37;6.00;;;5.30;;
39898;SDS011;25571;47.876;10.642;2022-08-30T06:31:09;5.80;;;5.28;;
39898;SDS011;25571;47.876;10.642;2022-08-30T06:33:37;5.82;;;5.28;;
39898;SDS011;25571;47.876;10.642;2022-08-30T06:36:06;5.95;;;5.35;;
39898;SDS011;25571;47.876;10.642;2022-08-30T06:38:37;5.25;;;4.75;;
39898;SDS011;25571;47.876;10.642;2022-08-30T06:41:07;5.40;;;4.90;;
39898;SDS011;25571;47.876;10.642;2022-08-30T06:43:34;4.65;;;4.25;;
39898;SDS011;25571;47.876;10.642;2022-08-30T06:46:04;4.32;;;3.92;;
39898;SDS011;25571;47.876;10.642;2022-08-30T06:48:32;4.38;;;3.97;;
39898;SDS011;25571;47.876;10.642;2022-08-30T06:50:58;6.05;;;4.88;;
39898;SDS011;25571;47.876;10.642;2022-08-30T06:53:24;5.07;;;4.57;;
39898;SDS011;25571;47.876;10.642;2022-08-30T06:55:56;4.88;;;4.45;;
39898;SDS011;25571;47.876;10.642;2022-08-30T06:58:24;4.95;;;4.55;;
39898;SDS011;25571;47.876;10.642;2022-08-30T07:00:51;4.60;;;4.20;;
39898;SDS011;25571;47.876;10.642;2022-08-30T07:03:16;5.45;;;4.95;;
39898;SDS011;25571;47.876;10.642;2022-08-30T07:05:42;5.13;;;4.63;;
39898;SDS011;25571;47.876;10.642;2022-08-30T07:08:07;5.75;;;5.15;;
39898;SDS011;25571;47.876;10.642;2022-08-30T07:10:36;4.88;;;4.47;;
39898;SDS011;25571;47.876;10.642;2022-08-30T07:13:02;5.40;;;4.90;;
39898;SDS011;25571;47.876;10.642;2022-08-30T07:15:28;4.43;;;4.05;;
39898;SDS011;25571;47.876;10.642;2022-08-30T07:17:53;4.70;;;4.30;;
39898;SDS011;25571;47.876;10.642;2022-08-30T07:20:37;4.47;;;4.07;;
39898;SDS011;25571;47.876;10.642;2022-08-30T07:23:03;4.90;;;4.40;;
39898;SDS011;25571;47.876;10.642;2022-08-30T07:25:29;4.10;;;3.70;;
39898;SDS011;25571;47.876;10.642;2022-08-30T07:27:54;4.63;;;4.22;;
39898;SDS011;25571;47.876;10.642;2022-08-30T07:30:21;5.93;;;3.75;;
39898;SDS011;25571;47.876;10.642;2022-08-30T07:32:46;4.90;;;4.30;;
39898;SDS011;25571;47.876;10.642;2022-08-30T07:35:13;5.18;;;4.68;;
39898;SDS011;25571;47.876;10.642;2022-08-30T07:37:39;4.25;;;3.75;;
39898;SDS011;25571;47.876;10.642;2022-08-30T07:40:05;4.20;;;3.85;;
39898;SDS011;25571;47.876;10.642;2022-08-30T07:42:31;4.28;;;3.88;;
39898;SDS011;25571;47.876;10.642;2022-08-30T07:44:57;3.97;;;3.67;;
39898;SDS011;25571;47.876;10.642;2022-08-30T07:47:22;3.67;;;3.38;;
39898;SDS011;25571;47.876;10.642;2022-08-30T07:49:48;4.15;;;3.85;;
39898;SDS011;25571;47.876;10.642;2022-08-30T07:52:14;4.93;;;4.50;;
39898;SDS011;25571;47.876;10.642;2022-08-30T07:54:39;5.68;;;5.13;;
39898;SDS011;25571;47.876;10.642;2022-08-30T07:57:05;6.00;;;5.38;;
39898;SDS011;25571;47.876;10.642;2022-08-30T07:59:31;4.57;;;4.18;;
39898;SDS011;25571;47.876;10.642;2022-08-30T08:01:57;6.13;;;5.38;;
39898;SDS011;25571;47.876;10.642;2022-08-30T08:04:22;4.30;;;3.90;;
39898;SDS011;25571;47.876;10.642;2022-08-30T08:06:48;4.90;;;4.50;;
39898;SDS011;25571;47.876;10.642;2022-08-30T08:09:13;4.57;;;4.18;;
39898;SDS011;25571;47.876;10.642;2022-08-30T08:11:39;6.82;;;4.43;;
39898;SDS011;25571;47.876;10.642;2022-08-30T08:14:05;4.30;;;3.90;;
39898;SDS011;25571;47.876;10.642;2022-08-30T08:16:32;4.90;;;4.50;;
39898;SDS011;25571;47.876;10.642;2022-08-30T08:18:58;4.55;;;4.07;;
39898;SDS011;25571;47.876;10.642;2022-08-30T08:21:24;4.28;;;3.88;;
39898;SDS011;25571;47.876;10.642;2022-08-30T08:23:51;4.05;;;3.75;;
39898;SDS011;25571;47.876;10.642;2022-08-30T08:26:17;4.50;;;4.10;;
39898;SDS011;25571;47.876;10.642;2022-08-30T08:28:43;4.13;;;3.83;;
39898;SDS011;25571;47.876;10.642;2022-08-30T08:31:18;4.65;;;4.03;;
39898;SDS011;25571;47.876;10.642;2022-08-30T08:33:46;3.90;;;3.60;;
39898;SDS011;25571;47.876;10.642;2022-08-30T08:36:12;5.47;;;4.00;;
39898;SDS011;25571;47.876;10.642;2022-08-30T08:38:38;5.10;;;4.57;;
39898;SDS011;25571;47.876;10.642;2022-08-30T08:43:53;3.28;;;3.03;;
39898;SDS011;25571;47.876;10.642;2022-08-30T08:49:41;4.20;;;3.80;;
39898;SDS011;25571;47.876;10.642;2022-08-30T08:52:12;3.35;;;3.05;;
39898;SDS011;25571;47.876;10.642;2022-08-30T08:55:06;3.70;;;3.22;;
39898;SDS011;25571;47.876;10.642;2022-08-30T08:57:35;2.90;;;2.70;;
39898;SDS011;25571;47.876;10.642;2022-08-30T09:00:05;2.97;;;2.78;;
39898;SDS011;25571;47.876;10.642;2022-08-30T09:02:35;3.38;;;3.00;;
39898;SDS011;25571;47.876;10.642;2022-08-30T09:05:12;3.30;;;3.00;;
39898;SDS011;25571;47.876;10.642;2022-08-30T09:07:42;3.30;;;3.00;;
39898;SDS011;25571;47.876;10.642;2022-08-30T09:10:13;3.53;;;3.22;;
39898;SDS011;25571;47.876;10.642;2022-08-30T09:12:39;2.97;;;2.67;;
39898;SDS011;25571;47.876;10.642;2022-08-30T09:15:16;2.85;;;2.65;;
39898;SDS011;25571;47.876;10.642;2022-08-30T09:18:01;2.72;;;2.53;;
39898;SDS011;25571;47.876;10.642;2022-08-30T09:20:37;3.10;;;2.80;;
39898;SDS011;25571;47.876;10.642;2022-08-30T09:25:56;2.85;;;2.35;;
39898;SDS011;25571;47.876;10.642;2022-08-30T09:30:59;2.80;;;2.60;;
39898;SDS011;25571;47.876;10.642;2022-08-30T09:33:28;3.35;;;2.63;;
39898;SDS011;25571;47.876;10.642;2022-08-30T09:35:54;2.72;;;2.53;;
39898;SDS011;25571;47.876;10.642;2022-08-30T09:38:22;3.47;;;2.85;;
39898;SDS011;25571;47.876;10.642;2022-08-30T09:40:53;2.72;;;2.50;;
39898;SDS011;25571;47.876;10.642;2022-08-30T09:48:30;2.80;;;2.60;;
39898;SDS011;25571;47.876;10.642;2022-08-30T09:53:37;3.03;;;2.83;;
39898;SDS011;25571;47.876;10.642;2022-08-30T09:56:28;3.80;;;2.65;;
39898;SDS011;25571;47.876;10.642;2022-08-30T10:07:38;3.00;;;2.80;;
39898;SDS011;25571;47.876;10.642;2022-08-30T10:12:41;2.38;;;2.17;;
39898;SDS011;25571;47.876;10.642;2022-08-30T10:15:39;2.83;;;2.63;;
39898;SDS011;25571;47.876;10.642;2022-08-30T10:21:37;2.92;;;2.72;;
39898;SDS011;25571;47.876;10.642;2022-08-30T10:24:12;2.70;;;2.50;;
39898;SDS011;25571;47.876;10.642;2022-08-30T10:29:51;3.10;;;2.70;;
39898;SDS011;25571;47.876;10.642;2022-08-30T10:32:24;4.03;;;2.92;;
39898;SDS011;25571;47.876;10.642;2022-08-30T10:34:56;3.03;;;2.83;;
39898;SDS011;25571;47.876;10.642;2022-08-30T10:37:25;3.25;;;2.90;;
39898;SDS011;25571;47.876;10.642;2022-08-30T10:39:55;3.03;;;2.70;;
39898;SDS011;25571;47.876;10.642;2022-08-30T10:42:53;3.13;;;2.83;;
39898;SDS011;25571;47.876;10.642;2022-08-30T10:45:22;3.55;;;3.25;;
39898;SDS011;25571;47.876;10.642;2022-08-30T10:50:27;3.40;;;3.10;;
39898;SDS011;25571;47.876;10.642;2022-08-30T10:53:02;3.88;;;3.45;;
39898;SDS011;25571;47.876;10.642;2022-08-30T10:58:26;3.65;;;3.35;;
39898;SDS011;25571;47.876;10.642;2022-08-30T11:06:35;3.40;;;3.10;;
39898;SDS011;25571;47.876;10.642;2022-08-30T11:14:48;3.28;;;2.97;;
39898;SDS011;25571;47.876;10.642;2022-08-30T11:19:48;3.03;;;2.83;;
39898;SDS011;25571;47.876;10.642;2022-08-30T11:22:17;2.80;;;2.60;;
39898;SDS011;25571;47.876;10.642;2022-08-30T11:25:03;2.97;;;2.70;;
39898;SDS011;25571;47.876;10.642;2022-08-30T11:30:56;2.78;;;2.58;;
39898;SDS011;25571;47.876;10.642;2022-08-30T11:33:04;2.90;;;2.65;;
39898;SDS011;25571;47.876;10.642;2022-08-30T11:41:29;3.42;;;3.13;;
39898;SDS011;25571;47.876;10.642;2022-08-30T11:46:17;3.05;;;2.75;;
39898;SDS011;25571;47.876;10.642;2022-08-30T11:59:08;2.80;;;2.60;;
39898;SDS011;25571;47.876;10.642;2022-08-30T12:01:49;3.58;;;3.05;;
39898;SDS011;25571;47.876;10.642;2022-08-30T12:07:48;3.22;;;2.97;;
39898;SDS011;25571;47.876;10.642;2022-08-30T12:14:35;3.50;;;3.20;;
39898;SDS011;25571;47.876;10.642;2022-08-30T12:17:14;3.47;;;3.03;;
39898;SDS011;25571;47.876;10.642;2022-08-30T12:19:59;3.45;;;3.20;;
39898;SDS011;25571;47.876;10.642;2022-08-30T12:22:27;4.20;;;3.80;;
39898;SDS011;25571;47.876;10.642;2022-08-30T12:24:54;3.30;;;3.00;;
39898;SDS011;25571;47.876;10.642;2022-08-30T12:27:24;3.20;;;2.90;;
39898;SDS011;25571;47.876;10.642;2022-08-30T12:29:53;3.58;;;3.28;;
39898;SDS011;25571;47.876;10.642;2022-08-30T12:34:54;3.72;;;3.42;;
39898;SDS011;25571;47.876;10.642;2022-08-30T12:40:15;3.72;;;3.00;;
39898;SDS011;25571;47.876;10.642;2022-08-30T12:42:50;3.63;;;3.20;;
39898;SDS011;25571;47.876;10.642;2022-08-30T12:45:21;4.90;;;3.60;;
39898;SDS011;25571;47.876;10.642;2022-08-30T12:48:02;3.40;;;3.10;;
39898;SDS011;25571;47.876;10.642;2022-08-30T12:50:33;3.45;;;3.15;;
39898;SDS011;25571;47.876;10.642;2022-08-30T12:53:36;3.35;;;3.05;;
39898;SDS011;25571;47.876;10.642;2022-08-30T12:56:10;3.35;;;3.05;;
39898;SDS011;25571;47.876;10.642;2022-08-30T12:58:45;3.67;;;3.38;;
39898;SDS011;25571;47.876;10.642;2022-08-30T13:01:17;3.05;;;2.85;;
39898;SDS011;25571;47.876;10.642;2022-08-30T13:03:55;3.72;;;3.42;;
39898;SDS011;25571;47.876;10.642;2022-08-30T13:11:58;4.18;;;3.75;;
39898;SDS011;25571;47.876;10.642;2022-08-30T13:14:30;4.47;;;3.50;;
39898;SDS011;25571;47.876;10.642;2022-08-30T13:19:44;3.83;;;3.53;;
39898;SDS011;25571;47.876;10.642;2022-08-30T13:22:26;6.35;;;3.83;;
39898;SDS011;25571;47.876;10.642;2022-08-30T13:24:56;3.60;;;3.30;;
39898;SDS011;25571;47.876;10.642;2022-08-30T13:27:23;3.60;;;3.25;;
39898;SDS011;25571;47.876;10.642;2022-08-30T13:29:49;3.05;;;2.83;;
39898;SDS011;25571;47.876;10.642;2022-08-30T13:32:15;3.20;;;2.90;;
39898;SDS011;25571;47.876;10.642;2022-08-30T13:34:41;3.28;;;2.97;;
39898;SDS011;25571;47.876;10.642;2022-08-30T13:37:07;3.35;;;3.05;;
39898;SDS011;25571;47.876;10.642;2022-08-30T13:39:36;8.23;;;4.13;;
39898;SDS011;25571;47.876;10.642;2022-08-30T13:42:02;3.53;;;3.22;;
39898;SDS011;25571;47.876;10.642;2022-08-30T13:44:28;3.53;;;3.10;;
39898;SDS011;25571;47.876;10.642;2022-08-30T13:46:54;3.65;;;3.35;;
39898;SDS011;25571;47.876;10.642;2022-08-30T13:51:53;4.43;;;4.03;;
39898;SDS011;25571;47.876;10.642;2022-08-30T13:54:22;5.88;;;3.70;;
39898;SDS011;25571;47.876;10.642;2022-08-30T13:56:51;4.47;;;3.90;;
39898;SDS011;25571;47.876;10.642;2022-08-30T13:59:18;4.30;;;3.85;;
39898;SDS011;25571;47.876;10.642;2022-08-30T14:01:44;3.95;;;3.65;;
39898;SDS011;25571;47.876;10.642;2022-08-30T14:04:10;4.15;;;3.85;;
39898;SDS011;25571;47.876;10.642;2022-08-30T14:06:36;4.57;;;3.90;;
39898;SDS011;25571;47.876;10.642;2022-08-30T14:09:02;4.10;;;3.78;;
39898;SDS011;25571;47.876;10.642;2022-08-30T14:11:30;4.53;;;4.10;;
39898;SDS011;25571;47.876;10.642;2022-08-30T14:13:57;3.90;;;3.60;;
39898;SDS011;25571;47.876;10.642;2022-08-30T14:16:22;4.18;;;3.78;;
39898;SDS011;25571;47.876;10.642;2022-08-30T14:18:48;4.57;;;4.18;;
39898;SDS011;25571;47.876;10.642;2022-08-30T14:21:14;4.55;;;3.95;;
39898;SDS011;25571;47.876;10.642;2022-08-30T14:23:39;3.92;;;3.60;;
39898;SDS011;25571;47.876;10.642;2022-08-30T14:26:08;3.97;;;3.67;;
39898;SDS011;25571;47.876;10.642;2022-08-30T14:28:37;4.50;;;4.10;;
39898;SDS011;25571;47.876;10.642;2022-08-30T14:31:03;5.65;;;4.38;;
39898;SDS011;25571;47.876;10.642;2022-08-30T14:33:28;5.07;;;4.60;;
39898;SDS011;25571;47.876;10.642;2022-08-30T14:35:54;4.70;;;4.30;;
39898;SDS011;25571;47.876;10.642;2022-08-30T14:38:19;5.50;;;4.32;;
39898;SDS011;25571;47.876;10.642;2022-08-30T14:40:45;5.15;;;4.65;;
39898;SDS011;25571;47.876;10.642;2022-08-30T14:43:11;4.03;;;3.63;;
39898;SDS011;25571;47.876;10.642;2022-08-30T14:45:37;4.20;;;3.80;;
39898;SDS011;25571;47.876;10.642;2022-08-30T14:48:02;4.18;;;3.78;;
39898;SDS011;25571;47.876;10.642;2022-08-30T14:50:33;4.28;;;3.88;;
39898;SDS011;25571;47.876;10.642;2022-08-30T14:53:03;4.18;;;3.88;;
39898;SDS011;25571;47.876;10.642;2022-08-30T14:55:30;3.85;;;3.30;;
39898;SDS011;25571;47.876;10.642;2022-08-30T14:57:56;5.20;;;3.83;;
39898;SDS011;25571;47.876;10.642;2022-08-30T15:00:22;4.05;;;3.65;;
39898;SDS011;25571;47.876;10.642;2022-08-30T15:02:48;4.65;;;4.25;;
39898;SDS011;25571;47.876;10.642;2022-08-30T15:05:14;4.20;;;3.80;;
39898;SDS011;25571;47.876;10.642;2022-08-30T15:07:41;4.30;;;3.90;;
39898;SDS011;25571;47.876;10.642;2022-08-30T15:10:07;4.57;;;4.00;;
39898;SDS011;25571;47.876;10.642;2022-08-30T15:12:33;3.90;;;3.60;;
39898;SDS011;25571;47.876;10.642;2022-08-30T15:14:59;4.68;;;3.85;;
39898;SDS011;25571;47.876;10.642;2022-08-30T15:17:25;3.70;;;3.40;;
39898;SDS011;25571;47.876;10.642;2022-08-30T15:19:50;3.90;;;3.60;;
39898;SDS011;25571;47.876;10.642;2022-08-30T15:22:16;4.97;;;3.65;;
39898;SDS011;25571;47.876;10.642;2022-08-30T15:24:42;4.40;;;4.00;;
39898;SDS011;25571;47.876;10.642;2022-08-30T15:27:08;4.25;;;3.95;;
39898;SDS011;25571;47.876;10.642;2022-08-30T15:29:34;3.63;;;3.30;;
39898;SDS011;25571;47.876;10.642;2022-08-30T15:32:00;4.55;;;4.15;;
39898;SDS011;25571;47.876;10.642;2022-08-30T15:34:27;4.28;;;3.88;;
39898;SDS011;25571;47.876;10.642;2022-08-30T15:36:54;4.60;;;3.80;;
39898;SDS011;25571;47.876;10.642;2022-08-30T15:39:20;4.07;;;3.67;;
39898;SDS011;25571;47.876;10.642;2022-08-30T15:41:46;4.32;;;3.85;;
39898;SDS011;25571;47.876;10.642;2022-08-30T15:44:13;4.05;;;3.75;;
39898;SDS011;25571;47.876;10.642;2022-08-30T15:46:40;3.90;;;3.60;;
39898;SDS011;25571;47.876;10.642;2022-08-30T15:49:10;4.28;;;3.88;;
39898;SDS011;25571;47.876;10.642;2022-08-30T15:51:46;4.85;;;4.45;;
39898;SDS011;25571;47.876;10.642;2022-08-30T15:54:14;4.15;;;3.85;;
39898;SDS011;25571;47.876;10.642;2022-08-30T15:56:42;3.60;;;3.30;;
39898;SDS011;25571;47.876;10.642;2022-08-30T15:59:08;3.88;;;3.50;;
39898;SDS011;25571;47.876;10.642;2022-08-30T16:01:35;3.75;;;3.45;;
39898;SDS011;25571;47.876;10.642;2022-08-30T16:04:01;3.25;;;2.95;;
39898;SDS011;25571;47.876;10.642;2022-08-30T16:06:29;3.50;;;3.20;;
39898;SDS011;25571;47.876;10.642;2022-08-30T16:08:58;3.45;;;3.15;;
39898;SDS011;25571;47.876;10.642;2022-08-30T16:11:24;3.38;;;3.08;;
39898;SDS011;25571;47.876;10.642;2022-08-30T16:13:51;3.63;;;3.33;;
39898;SDS011;25571;47.876;10.642;2022-08-30T16:16:18;4.70;;;4.30;;
39898;SDS011;25571;47.876;10.642;2022-08-30T16:18:45;3.53;;;3.22;;
39898;SDS011;25571;47.876;10.642;2022-08-30T16:21:14;3.38;;;3.15;;
39898;SDS011;25571;47.876;10.642;2022-08-30T16:23:44;3.78;;;3.30;;
39898;SDS011;25571;47.876;10.642;2022-08-30T16:26:11;3.63;;;3.22;;